Time;durP1;ratioP1;P1;durP2;ratioP2;P2;SDS_P1;SDS_P2;PMS_P1;PMS_P2;Temp;Humidity;BMP_temperature;BMP_pressure;BME280_temperature;BME280_humidity;BME280_pressure;Samples;Min_cycle;Max_cycle;Signal;HPM_P1;HPM_P2
2023/03/22 00:02:09;;;;;;;22.47;15.67;;;;;;;;;;5102641;28;20593;-82
2023/03/22 00:04:36;;;;;;;23.03;16.23;;;;;;;;;;5096094;28;20200;-82
2023/03/22 00:07:02;;;;;;;24.63;16.47;;;;;;;;;;5109471;28;20219;-81
2023/03/22 00:09:29;;;;;;;21.13;14.93;;;;;;;;;;5090361;28;20265;-81
2023/03/22 00:11:56;;;;;;;21.67;15.23;;;;;;;;;;5061205;28;1160853;-81
2023/03/22 00:14:24;;;;;;;19.77;15.60;;;;;;;;;;5110843;28;20191;-81
2023/03/22 00:16:51;;;;;;;21.37;14.90;;;;;;;;;;5110421;28;20294;-82
2023/03/22 00:19:18;;;;;;;18.87;14.47;;;;;;;;;;5104668;28;20200;-82
2023/03/22 00:21:45;;;;;;;23.70;15.10;;;;;;;;;;5103490;28;20632;-81
2023/03/22 00:24:11;;;;;;;21.70;15.83;;;;;;;;;;5104536;28;20296;-81
2023/03/22 00:26:38;;;;;;;20.97;15.67;;;;;;;;;;5103714;28;20271;-82
2023/03/22 00:29:05;;;;;;;21.27;15.53;;;;;;;;;;5110580;28;20234;-81
2023/03/22 00:31:33;;;;;;;22.07;15.37;;;;;;;;;;5110713;28;20681;-81
2023/03/22 00:34:00;;;;;;;23.50;15.63;;;;;;;;;;5103753;28;20208;-82
2023/03/22 00:36:27;;;;;;;22.87;15.10;;;;;;;;;;5090758;28;20632;-82
2023/03/22 00:38:53;;;;;;;22.77;15.03;;;;;;;;;;5103025;28;20591;-82
2023/03/22 00:41:21;;;;;;;19.50;14.73;;;;;;;;;;5104879;28;20199;-82
2023/03/22 00:43:49;;;;;;;21.57;15.20;;;;;;;;;;5102819;28;20212;-83
2023/03/22 00:46:18;;;;;;;24.93;15.60;;;;;;;;;;5105211;28;20586;-82
2023/03/22 00:48:46;;;;;;;19.43;13.87;;;;;;;;;;5110869;28;20334;-82
2023/03/22 00:51:13;;;;;;;17.13;15.13;;;;;;;;;;5096899;28;20679;-83
2023/03/22 00:53:40;;;;;;;21.07;14.73;;;;;;;;;;5101324;28;20196;-82
2023/03/22 00:56:08;;;;;;;23.53;15.47;;;;;;;;;;5092910;28;20204;-83
2023/03/22 00:58:35;;;;;;;23.30;14.93;;;;;;;;;;5110877;28;20279;-82
2023/03/22 01:01:01;;;;;;;20.17;15.97;;;;;;;;;;5097276;28;20644;-82
2023/03/22 01:03:28;;;;;;;21.80;16.27;;;;;;;;;;5100478;28;20207;-83
2023/03/22 01:05:56;;;;;;;22.63;16.13;;;;;;;;;;5089834;28;20690;-82
2023/03/22 01:08:23;;;;;;;22.80;17.07;;;;;;;;;;5093415;28;20714;-83
2023/03/22 01:10:50;;;;;;;29.53;18.83;;;;;;;;;;5096424;28;20247;-84
2023/03/22 01:13:17;;;;;;;21.13;15.97;;;;;;;;;;5114513;28;20248;-83
2023/03/22 01:15:46;;;;;;;24.30;15.67;;;;;;;;;;5111057;28;20288;-83
2023/03/22 01:18:13;;;;;;;22.57;14.83;;;;;;;;;;5093554;28;20584;-84
2023/03/22 01:20:40;;;;;;;21.97;15.57;;;;;;;;;;5108073;28;20208;-83
2023/03/22 01:23:08;;;;;;;18.23;14.33;;;;;;;;;;5104626;28;20203;-83
2023/03/22 01:25:35;;;;;;;16.53;12.77;;;;;;;;;;5096337;28;20262;-84
2023/03/22 01:28:02;;;;;;;19.37;12.60;;;;;;;;;;5093722;28;20235;-83
2023/03/22 01:30:28;;;;;;;16.63;12.20;;;;;;;;;;5098319;28;20204;-83
2023/03/22 01:32:55;;;;;;;16.67;13.20;;;;;;;;;;5114055;28;20641;-84
2023/03/22 01:35:22;;;;;;;21.10;14.77;;;;;;;;;;5095243;28;20200;-84
2023/03/22 01:37:49;;;;;;;21.87;15.13;;;;;;;;;;5105484;28;20204;-84
2023/03/22 01:40:17;;;;;;;22.90;14.03;;;;;;;;;;5100197;28;20628;-82
2023/03/22 01:42:44;;;;;;;19.37;13.57;;;;;;;;;;5101487;28;20204;-83
2023/03/22 01:45:39;;;;;;;20.63;14.07;;;;;;;;;;5093083;28;20196;-83
2023/03/22 01:48:14;;;;;;;26.03;15.00;;;;;;;;;;5106338;28;20726;-83
2023/03/22 01:50:43;;;;;;;19.03;13.23;;;;;;;;;;5104895;28;20316;-84
2023/03/22 01:53:12;;;;;;;15.70;14.17;;;;;;;;;;5108690;28;20204;-84
2023/03/22 01:55:41;;;;;;;20.13;14.10;;;;;;;;;;5093689;28;20256;-83
2023/03/22 01:58:08;;;;;;;18.97;14.70;;;;;;;;;;5093337;28;20219;-83
2023/03/22 02:00:35;;;;;;;20.67;14.47;;;;;;;;;;5093068;28;20246;-83
2023/03/22 02:03:02;;;;;;;17.73;15.03;;;;;;;;;;5099014;28;20206;-83
2023/03/22 02:05:30;;;;;;;29.67;16.13;;;;;;;;;;5100335;28;20230;-83
2023/03/22 02:07:57;;;;;;;23.70;15.13;;;;;;;;;;5079597;28;20235;-84
2023/03/22 02:10:26;;;;;;;23.60;14.80;;;;;;;;;;5106342;28;20790;-83
2023/03/22 02:13:05;;;;;;;22.67;15.83;;;;;;;;;;5106665;28;20204;-84
2023/03/22 02:15:33;;;;;;;19.17;14.30;;;;;;;;;;5092809;28;20211;-83
2023/03/22 02:18:15;;;;;;;20.13;15.07;;;;;;;;;;5092129;28;20207;-83
2023/03/22 02:21:17;;;;;;;18.67;14.03;;;;;;;;;;5109822;28;20198;-83
2023/03/22 02:24:07;;;;;;;19.40;15.03;;;;;;;;;;5099620;28;20211;-82
2023/03/22 02:26:50;;;;;;;19.23;15.40;;;;;;;;;;5110565;28;20203;-83
2023/03/22 02:29:26;;;;;;;20.97;14.57;;;;;;;;;;5080380;28;20223;-83
2023/03/22 02:32:12;;;;;;;17.57;13.83;;;;;;;;;;5092825;28;20285;-83
2023/03/22 02:34:54;;;;;;;18.37;14.07;;;;;;;;;;5092335;28;20732;-83
2023/03/22 02:38:05;;;;;;;19.37;14.80;;;;;;;;;;5079532;28;20228;-83
2023/03/22 02:40:35;;;;;;;24.23;16.00;;;;;;;;;;5082454;28;20212;-83
2023/03/22 02:43:08;;;;;;;25.20;14.47;;;;;;;;;;5092562;28;20219;-84
2023/03/22 02:45:39;;;;;;;21.63;16.90;;;;;;;;;;5092346;28;20204;-83
2023/03/22 02:48:09;;;;;;;23.50;15.17;;;;;;;;;;5107370;28;20713;-83
2023/03/22 02:50:39;;;;;;;19.27;14.70;;;;;;;;;;5103456;28;20631;-83
2023/03/22 02:53:10;;;;;;;24.73;15.10;;;;;;;;;;5108636;28;20210;-82
2023/03/22 02:55:43;;;;;;;16.00;14.33;;;;;;;;;;5112737;28;20207;-83
2023/03/22 02:58:16;;;;;;;20.50;14.97;;;;;;;;;;5093831;28;20648;-83
2023/03/22 03:00:43;;;;;;;19.17;14.37;;;;;;;;;;5104552;28;20226;-83
2023/03/22 03:03:11;;;;;;;22.37;15.50;;;;;;;;;;5098710;28;20202;-83
2023/03/22 03:05:39;;;;;;;24.27;16.23;;;;;;;;;;5102543;28;20663;-83
2023/03/22 03:08:07;;;;;;;23.10;15.63;;;;;;;;;;5106994;28;20223;-84
2023/03/22 03:10:35;;;;;;;18.57;15.03;;;;;;;;;;5090772;28;20679;-84
2023/03/22 03:13:03;;;;;;;24.37;14.27;;;;;;;;;;5091619;28;20208;-84
2023/03/22 03:15:30;;;;;;;20.63;15.40;;;;;;;;;;5092020;28;20208;-85
2023/03/22 03:18:10;;;;;;;21.07;15.57;;;;;;;;;;5100878;28;20235;-85
2023/03/22 03:20:45;;;;;;;24.40;15.87;;;;;;;;;;5094705;28;20686;-83
2023/03/22 03:23:18;;;;;;;24.33;15.47;;;;;;;;;;5091751;28;20637;-84
2023/03/22 03:25:50;;;;;;;20.33;14.37;;;;;;;;;;5071726;28;20201;-84
2023/03/22 03:28:28;;;;;;;17.90;14.43;;;;;;;;;;5090851;28;20760;-83
2023/03/22 03:30:59;;;;;;;21.60;13.67;;;;;;;;;;5091605;28;20207;-83
2023/03/22 03:33:28;;;;;;;24.00;15.47;;;;;;;;;;5105296;28;20208;-83
2023/03/22 03:35:58;;;;;;;22.60;14.50;;;;;;;;;;5102289;28;20203;-84
2023/03/22 03:38:27;;;;;;;19.80;14.43;;;;;;;;;;5107422;28;20204;-83
2023/03/22 03:40:57;;;;;;;23.10;16.13;;;;;;;;;;5103004;28;20207;-84
2023/03/22 03:43:25;;;;;;;18.33;14.60;;;;;;;;;;5111821;28;20203;-83
2023/03/22 03:45:52;;;;;;;19.20;15.63;;;;;;;;;;5111743;28;20203;-83
2023/03/22 03:48:22;;;;;;;17.93;14.00;;;;;;;;;;5105719;28;20646;-83
2023/03/22 03:50:51;;;;;;;21.10;15.13;;;;;;;;;;5104502;28;20685;-83
2023/03/22 03:53:17;;;;;;;19.90;15.20;;;;;;;;;;5077764;28;21085;-84
2023/03/22 03:55:45;;;;;;;19.87;13.60;;;;;;;;;;5091073;28;20261;-84
2023/03/22 03:58:11;;;;;;;20.50;14.07;;;;;;;;;;5111772;28;20208;-83
2023/03/22 04:00:40;;;;;;;33.00;21.10;;;;;;;;;;5095071;28;20205;-79
2023/03/22 04:03:06;;;;;;;104.20;51.80;;;;;;;;;;5103253;28;20200;-79
2023/03/22 04:05:33;;;;;;;104.70;52.13;;;;;;;;;;5110247;28;20204;-79
2023/03/22 04:08:00;;;;;;;143.87;66.10;;;;;;;;;;5110483;28;20750;-79
2023/03/22 04:10:27;;;;;;;91.50;44.83;;;;;;;;;;5110748;28;20203;-80
2023/03/22 04:12:54;;;;;;;54.73;32.40;;;;;;;;;;5110858;28;20710;-80
2023/03/22 04:15:21;;;;;;;36.43;22.93;;;;;;;;;;5110405;28;20204;-80
2023/03/22 04:17:49;;;;;;;21.40;15.80;;;;;;;;;;5103675;28;20211;-80
2023/03/22 04:20:17;;;;;;;32.73;18.27;;;;;;;;;;5103337;28;20206;-82
2023/03/22 04:22:47;;;;;;;24.03;16.63;;;;;;;;;;5097177;28;20291;-80
2023/03/22 04:25:16;;;;;;;21.03;15.93;;;;;;;;;;5109754;28;20204;-81
2023/03/22 04:27:44;;;;;;;21.63;15.57;;;;;;;;;;5109950;28;20238;-82
2023/03/22 04:30:18;;;;;;;22.57;15.50;;;;;;;;;;5110074;28;20223;-82
2023/03/22 04:32:46;;;;;;;21.90;13.97;;;;;;;;;;5100327;28;20199;-81
2023/03/22 04:35:14;;;;;;;17.13;13.70;;;;;;;;;;5104067;28;20212;-81
2023/03/22 04:37:41;;;;;;;25.53;16.90;;;;;;;;;;5091095;28;20196;-81
2023/03/22 04:40:14;;;;;;;21.03;15.90;;;;;;;;;;5090224;28;20211;-81
2023/03/22 04:42:41;;;;;;;20.70;15.80;;;;;;;;;;5104196;28;20207;-81
2023/03/22 04:45:09;;;;;;;23.60;14.50;;;;;;;;;;5114230;28;20199;-81
2023/03/22 04:47:36;;;;;;;20.07;16.10;;;;;;;;;;5114463;28;20739;-81
2023/03/22 04:50:02;;;;;;;22.77;18.13;;;;;;;;;;5100620;28;20226;-81
2023/03/22 04:52:31;;;;;;;18.70;16.43;;;;;;;;;;5101978;28;20196;-80
2023/03/22 04:54:57;;;;;;;26.07;17.77;;;;;;;;;;5107715;28;20232;-80
2023/03/22 04:57:24;;;;;;;20.33;14.97;;;;;;;;;;5107145;28;20642;-80
2023/03/22 04:59:51;;;;;;;21.80;17.63;;;;;;;;;;5100343;28;20214;-80
2023/03/22 05:02:18;;;;;;;24.87;20.00;;;;;;;;;;5114397;28;20678;-81
2023/03/22 05:04:44;;;;;;;26.90;19.63;;;;;;;;;;5113787;28;20208;-79
2023/03/22 05:07:11;;;;;;;21.00;17.10;;;;;;;;;;5101027;28;20196;-80
2023/03/22 05:09:39;;;;;;;30.63;18.60;;;;;;;;;;5112913;28;20600;-81
2023/03/22 05:12:06;;;;;;;22.47;18.27;;;;;;;;;;5091459;28;20228;-80
2023/03/22 05:14:33;;;;;;;22.13;16.70;;;;;;;;;;5086956;28;20203;-81
2023/03/22 05:17:00;;;;;;;23.70;15.77;;;;;;;;;;5100762;28;20608;-82
2023/03/22 05:19:27;;;;;;;22.10;15.50;;;;;;;;;;5107022;28;20206;-81
2023/03/22 05:21:56;;;;;;;27.33;16.57;;;;;;;;;;5107119;28;20209;-81
2023/03/22 05:24:23;;;;;;;24.90;15.63;;;;;;;;;;5098967;28;20742;-80
2023/03/22 05:26:52;;;;;;;21.47;15.67;;;;;;;;;;5113689;28;20208;-81
2023/03/22 05:29:20;;;;;;;17.83;14.37;;;;;;;;;;5087597;28;20219;-80
2023/03/22 05:31:46;;;;;;;26.37;19.63;;;;;;;;;;5106518;28;20257;-80
2023/03/22 05:34:13;;;;;;;30.30;21.23;;;;;;;;;;5093241;28;20683;-80
2023/03/22 05:36:41;;;;;;;28.87;18.53;;;;;;;;;;5111157;28;20563;-81
2023/03/22 05:39:08;;;;;;;23.17;18.27;;;;;;;;;;5113890;28;20571;-81
2023/03/22 05:41:35;;;;;;;24.00;17.30;;;;;;;;;;5113699;28;20199;-82
2023/03/22 05:44:03;;;;;;;24.57;15.87;;;;;;;;;;5101629;28;20208;-81
2023/03/22 05:46:30;;;;;;;25.83;17.80;;;;;;;;;;5090677;28;20207;-81
2023/03/22 05:48:57;;;;;;;22.47;17.27;;;;;;;;;;5103685;28;20268;-82
2023/03/22 05:51:26;;;;;;;21.23;16.13;;;;;;;;;;5111175;28;20351;-81
2023/03/22 05:53:53;;;;;;;25.53;16.77;;;;;;;;;;5111763;28;20697;-81
2023/03/22 05:56:24;;;;;;;24.47;17.07;;;;;;;;;;5111285;28;20203;-81
2023/03/22 05:58:51;;;;;;;25.27;18.73;;;;;;;;;;5111773;28;20203;-81
2023/03/22 06:01:20;;;;;;;29.67;21.90;;;;;;;;;;5112551;28;20290;-82
2023/03/22 06:03:47;;;;;;;23.77;16.70;;;;;;;;;;5099928;28;20336;-81
2023/03/22 06:06:14;;;;;;;19.53;15.53;;;;;;;;;;5112461;28;20288;-81
2023/03/22 06:08:41;;;;;;;23.97;16.20;;;;;;;;;;5098011;28;20254;-81
2023/03/22 06:11:08;;;;;;;21.73;15.93;;;;;;;;;;5100356;28;20227;-81
2023/03/22 06:13:36;;;;;;;72.00;51.97;;;;;;;;;;5113051;28;20595;-81
2023/03/22 06:16:03;;;;;;;52.50;41.50;;;;;;;;;;5107069;28;20200;-79
2023/03/22 06:18:34;;;;;;;31.33;21.23;;;;;;;;;;5105463;28;20199;-79
2023/03/22 06:21:01;;;;;;;23.77;17.07;;;;;;;;;;5113055;28;20317;-80
2023/03/22 06:23:28;;;;;;;21.70;16.53;;;;;;;;;;5098502;28;20525;-81
2023/03/22 06:25:54;;;;;;;27.77;19.60;;;;;;;;;;5112567;28;20199;-79
2023/03/22 06:28:21;;;;;;;20.97;17.37;;;;;;;;;;5112250;28;20738;-80
2023/03/22 06:30:48;;;;;;;21.60;16.43;;;;;;;;;;5099039;28;20250;-79
2023/03/22 06:33:15;;;;;;;20.23;16.70;;;;;;;;;;5112945;28;20579;-80
2023/03/22 06:35:43;;;;;;;18.87;16.57;;;;;;;;;;5112565;28;20191;-80
2023/03/22 06:38:09;;;;;;;26.17;17.37;;;;;;;;;;5111906;28;20199;-80
2023/03/22 06:40:36;;;;;;;23.43;17.53;;;;;;;;;;5112589;28;20562;-79
2023/03/22 06:43:03;;;;;;;23.87;18.60;;;;;;;;;;5112603;28;20199;-80
2023/03/22 06:45:32;;;;;;;24.17;16.93;;;;;;;;;;5104663;28;20588;-80
2023/03/22 06:47:59;;;;;;;23.23;17.77;;;;;;;;;;5107183;28;20287;-80
2023/03/22 06:50:26;;;;;;;24.10;17.63;;;;;;;;;;5111615;28;20245;-80
2023/03/22 06:52:56;;;;;;;27.63;18.80;;;;;;;;;;5098502;28;20556;-80
2023/03/22 06:55:23;;;;;;;28.13;18.43;;;;;;;;;;5112102;28;20191;-80
2023/03/22 06:57:50;;;;;;;23.87;18.33;;;;;;;;;;5109699;28;20196;-80
2023/03/22 07:00:17;;;;;;;30.50;21.43;;;;;;;;;;5100618;28;20252;-81
2023/03/22 07:02:44;;;;;;;32.13;20.27;;;;;;;;;;5112000;28;20195;-80
2023/03/22 07:05:11;;;;;;;27.93;22.07;;;;;;;;;;5111787;28;20199;-80
2023/03/22 07:07:37;;;;;;;25.83;20.10;;;;;;;;;;5109052;28;20199;-80
2023/03/22 07:10:07;;;;;;;26.97;19.47;;;;;;;;;;5100905;28;20770;-80
2023/03/22 07:12:34;;;;;;;27.47;20.00;;;;;;;;;;5098680;28;20676;-80
2023/03/22 07:15:01;;;;;;;35.53;21.63;;;;;;;;;;5111752;28;20208;-80
2023/03/22 07:17:28;;;;;;;27.23;20.73;;;;;;;;;;5111200;28;20196;-80
2023/03/22 07:19:54;;;;;;;27.70;20.43;;;;;;;;;;5100835;28;20196;-80
2023/03/22 07:22:23;;;;;;;31.07;20.37;;;;;;;;;;5108643;28;20211;-80
2023/03/22 07:24:50;;;;;;;32.83;21.77;;;;;;;;;;5111893;28;20683;-80
2023/03/22 07:27:19;;;;;;;32.30;22.00;;;;;;;;;;5097664;28;20203;-80
2023/03/22 07:29:45;;;;;;;31.17;21.07;;;;;;;;;;5111865;28;20300;-80
2023/03/22 07:32:12;;;;;;;28.57;20.93;;;;;;;;;;5110972;28;20620;-81
2023/03/22 07:34:39;;;;;;;31.20;23.43;;;;;;;;;;5111205;28;20199;-81
2023/03/22 07:37:07;;;;;;;32.23;24.40;;;;;;;;;;5110956;28;20204;-79
2023/03/22 07:39:34;;;;;;;36.47;23.60;;;;;;;;;;5111648;28;20211;-80
2023/03/22 07:42:01;;;;;;;32.30;22.33;;;;;;;;;;5111415;28;20693;-80
2023/03/22 07:44:29;;;;;;;67.73;44.50;;;;;;;;;;5111570;28;20204;-80
2023/03/22 07:46:56;;;;;;;55.63;38.93;;;;;;;;;;5110731;28;20281;-80
2023/03/22 07:49:22;;;;;;;42.93;32.37;;;;;;;;;;5111591;28;20222;-80
2023/03/22 07:51:50;;;;;;;64.40;54.37;;;;;;;;;;5090836;28;20211;-79
2023/03/22 07:54:16;;;;;;;36.13;26.93;;;;;;;;;;5104400;28;20203;-81
2023/03/22 07:56:43;;;;;;;34.30;22.37;;;;;;;;;;5110956;28;20204;-80
2023/03/22 07:59:10;;;;;;;30.57;21.63;;;;;;;;;;5111446;28;20199;-81
2023/03/22 08:01:38;;;;;;;34.87;25.23;;;;;;;;;;5111028;28;20294;-81
2023/03/22 08:04:05;;;;;;;31.97;23.00;;;;;;;;;;5097387;28;20200;-80
2023/03/22 08:06:32;;;;;;;39.53;28.47;;;;;;;;;;5098709;28;20192;-80
2023/03/22 08:08:59;;;;;;;44.87;28.50;;;;;;;;;;5110451;28;20686;-80
2023/03/22 08:11:26;;;;;;;35.83;25.30;;;;;;;;;;5110736;28;20227;-80
2023/03/22 08:13:53;;;;;;;39.23;23.80;;;;;;;;;;5097073;28;20679;-80
2023/03/22 08:16:20;;;;;;;46.37;29.73;;;;;;;;;;5102955;28;20205;-80
2023/03/22 08:18:48;;;;;;;38.67;22.63;;;;;;;;;;5110182;28;20551;-80
2023/03/22 08:21:15;;;;;;;26.43;18.73;;;;;;;;;;5106122;28;20204;-81
2023/03/22 08:23:41;;;;;;;32.90;21.27;;;;;;;;;;5108644;28;20202;-82
2023/03/22 08:26:09;;;;;;;34.13;22.07;;;;;;;;;;5103356;28;20743;-80
2023/03/22 08:28:36;;;;;;;35.47;23.13;;;;;;;;;;5115093;28;20200;-80
2023/03/22 08:31:10;;;;;;;34.63;20.50;;;;;;;;;;5105297;28;20220;-80
2023/03/22 08:33:40;;;;;;;33.00;22.40;;;;;;;;;;5112075;28;20210;-80
2023/03/22 08:36:11;;;;;;;30.17;20.23;;;;;;;;;;5114793;28;20196;-80
2023/03/22 08:38:38;;;;;;;34.90;21.27;;;;;;;;;;5113772;28;20196;-81
2023/03/22 08:41:07;;;;;;;30.07;19.90;;;;;;;;;;5102334;28;20573;-80
2023/03/22 08:43:34;;;;;;;26.50;18.67;;;;;;;;;;5114102;28;20202;-80
2023/03/22 08:46:00;;;;;;;30.83;21.23;;;;;;;;;;5114468;28;20210;-80
2023/03/22 08:48:29;;;;;;;25.47;19.43;;;;;;;;;;5113897;28;20732;-80
2023/03/22 08:50:56;;;;;;;30.07;20.20;;;;;;;;;;5114527;28;20254;-80
2023/03/22 08:53:24;;;;;;;24.37;18.13;;;;;;;;;;5108306;28;20208;-81
2023/03/22 08:55:51;;;;;;;24.33;17.83;;;;;;;;;;5107106;28;20678;-80
2023/03/22 08:58:18;;;;;;;25.10;18.63;;;;;;;;;;5114092;28;20199;-81
2023/03/22 09:00:45;;;;;;;23.80;18.27;;;;;;;;;;5114326;28;20558;-81
2023/03/22 09:03:12;;;;;;;24.47;16.67;;;;;;;;;;5114079;28;20223;-80
2023/03/22 09:05:39;;;;;;;24.93;15.60;;;;;;;;;;5114148;28;20200;-80
2023/03/22 09:08:06;;;;;;;24.03;16.30;;;;;;;;;;5080679;28;20204;-82
2023/03/22 09:10:34;;;;;;;19.33;15.77;;;;;;;;;;5107138;28;20215;-80
2023/03/22 09:13:01;;;;;;;23.13;14.90;;;;;;;;;;5114172;28;20687;-79
2023/03/22 09:15:27;;;;;;;14.00;10.90;;;;;;;;;;5100803;28;20250;-80
2023/03/22 09:17:54;;;;;;;13.67;10.13;;;;;;;;;;5113801;28;20601;-80
2023/03/22 09:20:24;;;;;;;11.30;8.67;;;;;;;;;;5099194;28;20219;-80
2023/03/22 09:22:51;;;;;;;12.37;10.10;;;;;;;;;;5093927;28;20242;-80
2023/03/22 09:25:18;;;;;;;13.23;8.93;;;;;;;;;;5108316;28;20203;-80
2023/03/22 09:27:46;;;;;;;14.50;10.47;;;;;;;;;;5105306;28;20209;-83
2023/03/22 09:30:13;;;;;;;20.47;12.40;;;;;;;;;;5109043;28;20223;-80
2023/03/22 09:32:41;;;;;;;18.00;11.10;;;;;;;;;;5113744;28;20203;-80
2023/03/22 09:35:09;;;;;;;18.37;13.07;;;;;;;;;;5113675;28;20196;-80
2023/03/22 09:37:35;;;;;;;20.53;13.23;;;;;;;;;;5113650;28;20203;-80
2023/03/22 09:40:05;;;;;;;18.63;12.13;;;;;;;;;;5112866;28;20210;-80
2023/03/22 09:42:36;;;;;;;18.40;13.60;;;;;;;;;;5113700;28;20199;-80
2023/03/22 09:45:08;;;;;;;21.73;12.87;;;;;;;;;;5109234;28;20226;-80
2023/03/22 09:47:38;;;;;;;16.50;11.70;;;;;;;;;;5105284;28;20215;-80
2023/03/22 09:50:12;;;;;;;15.97;11.80;;;;;;;;;;5113785;28;20238;-80
2023/03/22 09:52:39;;;;;;;18.17;10.23;;;;;;;;;;5113296;28;20196;-80
2023/03/22 09:55:10;;;;;;;16.73;11.47;;;;;;;;;;5113515;28;20272;-79
2023/03/22 09:57:37;;;;;;;15.80;9.77;;;;;;;;;;5111775;28;20634;-80
2023/03/22 10:00:15;;;;;;;13.03;9.40;;;;;;;;;;5101259;28;20212;-81
2023/03/22 10:02:53;;;;;;;13.47;9.90;;;;;;;;;;5112907;28;20202;-79
2023/03/22 10:05:25;;;;;;;12.10;10.00;;;;;;;;;;5113098;28;20287;-80
2023/03/22 10:08:15;;;;;;;14.47;10.03;;;;;;;;;;5112821;28;20632;-80
2023/03/22 10:10:42;;;;;;;13.03;9.03;;;;;;;;;;5110299;28;20235;-80
2023/03/22 10:13:18;;;;;;;13.53;9.97;;;;;;;;;;5101868;28;20207;-80
2023/03/22 10:15:47;;;;;;;16.00;10.80;;;;;;;;;;5113036;28;20203;-80
2023/03/22 10:18:18;;;;;;;15.20;10.60;;;;;;;;;;5112916;28;20624;-80
2023/03/22 10:20:48;;;;;;;19.70;12.20;;;;;;;;;;5108794;28;20265;-79
2023/03/22 10:23:17;;;;;;;21.93;13.90;;;;;;;;;;5104245;28;20207;-80
2023/03/22 10:25:44;;;;;;;26.67;15.00;;;;;;;;;;5112605;28;20265;-79
2023/03/22 10:28:17;;;;;;;19.13;12.70;;;;;;;;;;5100391;28;20679;-79
2023/03/22 10:30:49;;;;;;;13.53;10.07;;;;;;;;;;5091772;28;20284;-80
2023/03/22 10:33:21;;;;;;;16.07;10.57;;;;;;;;;;5106239;28;20246;-79
2023/03/22 10:35:48;;;;;;;12.23;10.27;;;;;;;;;;5112267;28;20206;-82
2023/03/22 10:38:19;;;;;;;10.60;7.60;;;;;;;;;;5111590;28;20697;-79
2023/03/22 10:40:47;;;;;;;12.47;9.73;;;;;;;;;;5111465;28;20207;-79
2023/03/22 10:43:19;;;;;;;13.53;8.77;;;;;;;;;;5094513;28;20207;-80
2023/03/22 10:45:47;;;;;;;14.60;10.73;;;;;;;;;;5102223;28;20690;-79
2023/03/22 10:48:18;;;;;;;14.00;9.83;;;;;;;;;;5109345;28;20196;-80
2023/03/22 10:50:45;;;;;;;12.80;8.90;;;;;;;;;;5111828;28;20620;-79
2023/03/22 10:53:18;;;;;;;10.87;7.27;;;;;;;;;;5112018;28;20207;-80
2023/03/22 10:55:45;;;;;;;9.50;8.13;;;;;;;;;;5111921;28;20208;-79
2023/03/22 10:58:14;;;;;;;9.37;7.13;;;;;;;;;;5111450;28;20667;-80
2023/03/22 11:00:45;;;;;;;8.43;6.60;;;;;;;;;;5111892;28;20207;-79
2023/03/22 11:03:25;;;;;;;8.37;6.77;;;;;;;;;;5112027;28;20256;-79
2023/03/22 11:05:59;;;;;;;6.00;4.43;;;;;;;;;;5111999;28;20207;-79
2023/03/22 11:08:25;;;;;;;4.70;4.30;;;;;;;;;;5112079;28;20206;-79
2023/03/22 11:10:53;;;;;;;4.33;3.93;;;;;;;;;;5106085;28;20240;-80
2023/03/22 11:13:21;;;;;;;4.83;3.83;;;;;;;;;;5091483;28;20728;-80
2023/03/22 11:15:54;;;;;;;7.50;3.97;;;;;;;;;;5088103;28;20228;-80
2023/03/22 11:18:22;;;;;;;7.67;5.40;;;;;;;;;;5082404;28;20265;-80
2023/03/22 11:20:56;;;;;;;6.23;4.77;;;;;;;;;;5091126;28;20204;-79
2023/03/22 11:23:23;;;;;;;5.13;4.17;;;;;;;;;;5091462;28;20204;-80
2023/03/22 11:25:51;;;;;;;4.63;4.23;;;;;;;;;;5090948;28;20205;-79
2023/03/22 11:28:19;;;;;;;4.00;3.60;;;;;;;;;;5091186;28;20197;-79
2023/03/22 11:31:08;;;;;;;3.20;2.90;;;;;;;;;;5084422;28;20228;-79
2023/03/22 11:33:36;;;;;;;4.77;3.43;;;;;;;;;;5068521;28;20287;-79
2023/03/22 11:36:05;;;;;;;2.40;2.20;;;;;;;;;;5090341;28;20212;-79
2023/03/22 11:38:36;;;;;;;2.83;2.40;;;;;;;;;;5090863;28;20196;-79
2023/03/22 11:41:05;;;;;;;4.00;3.60;;;;;;;;;;5079701;28;20252;-79
2023/03/22 11:43:35;;;;;;;4.70;3.90;;;;;;;;;;5089358;28;20209;-79
2023/03/22 11:46:02;;;;;;;7.37;4.90;;;;;;;;;;5090842;28;20291;-79
2023/03/22 11:48:31;;;;;;;6.33;5.07;;;;;;;;;;5090688;28;20208;-79
2023/03/22 11:51:07;;;;;;;5.57;4.33;;;;;;;;;;5090518;28;20315;-79
2023/03/22 11:53:36;;;;;;;5.43;4.00;;;;;;;;;;5066548;28;20200;-79
2023/03/22 11:56:06;;;;;;;3.83;3.53;;;;;;;;;;5090911;28;20200;-79
2023/03/22 11:58:45;;;;;;;5.60;4.60;;;;;;;;;;5090962;28;20203;-79
2023/03/22 12:01:15;;;;;;;4.63;3.90;;;;;;;;;;5090602;28;20587;-79
2023/03/22 12:03:43;;;;;;;3.40;3.10;;;;;;;;;;5090698;28;20297;-79
2023/03/22 12:06:16;;;;;;;3.73;3.40;;;;;;;;;;5090736;28;20258;-79
2023/03/22 12:08:45;;;;;;;5.93;4.87;;;;;;;;;;5090323;28;20200;-78
2023/03/22 12:11:16;;;;;;;8.73;5.53;;;;;;;;;;5097873;28;20235;-80
2023/03/22 12:13:45;;;;;;;12.70;8.70;;;;;;;;;;5111057;28;20670;-79
2023/03/22 12:16:13;;;;;;;9.53;6.67;;;;;;;;;;5084520;28;20222;-79
2023/03/22 12:18:44;;;;;;;9.40;6.93;;;;;;;;;;5110565;28;20632;-79
2023/03/22 12:21:12;;;;;;;7.47;6.27;;;;;;;;;;5111097;28;20705;-79
2023/03/22 12:23:39;;;;;;;13.13;7.57;;;;;;;;;;5110576;28;20269;-78
2023/03/22 12:26:08;;;;;;;9.27;6.53;;;;;;;;;;5110942;28;20196;-79
2023/03/22 12:28:39;;;;;;;5.53;4.37;;;;;;;;;;5128986;28;20209;-79
2023/03/22 12:31:07;;;;;;;11.47;6.20;;;;;;;;;;5120495;28;20219;-79
2023/03/22 12:33:38;;;;;;;8.97;6.10;;;;;;;;;;5130975;28;20282;-79
2023/03/22 12:36:07;;;;;;;12.13;9.67;;;;;;;;;;5131488;28;20215;-79
2023/03/22 12:38:40;;;;;;;19.37;12.67;;;;;;;;;;5131705;28;20622;-79
2023/03/22 12:41:10;;;;;;;24.77;17.40;;;;;;;;;;5131463;28;20289;-78
2023/03/22 12:43:47;;;;;;;22.53;15.77;;;;;;;;;;5131453;28;20205;-79
2023/03/22 12:46:18;;;;;;;11.17;8.13;;;;;;;;;;5130402;28;20684;-79
2023/03/22 12:48:50;;;;;;;10.00;8.63;;;;;;;;;;5131207;28;20207;-79
2023/03/22 12:51:17;;;;;;;11.37;9.23;;;;;;;;;;5131216;28;20223;-79
2023/03/22 12:53:47;;;;;;;9.67;8.67;;;;;;;;;;5131060;28;20259;-79
2023/03/22 12:56:16;;;;;;;13.20;10.77;;;;;;;;;;5128409;28;20263;-79
2023/03/22 12:58:46;;;;;;;8.70;6.93;;;;;;;;;;5120419;28;20195;-79
2023/03/22 13:01:21;;;;;;;20.83;14.40;;;;;;;;;;5131014;28;20249;-78
2023/03/22 13:03:51;;;;;;;15.30;11.47;;;;;;;;;;5133197;27;20247;-78
2023/03/22 13:06:35;;;;;;;15.23;11.63;;;;;;;;;;5134353;27;20243;-79
2023/03/22 13:09:22;;;;;;;13.40;10.03;;;;;;;;;;5133461;27;20203;-79
2023/03/22 13:11:50;;;;;;;13.50;11.93;;;;;;;;;;5133776;27;20253;-78
2023/03/22 13:14:56;;;;;;;13.53;9.33;;;;;;;;;;5134935;27;20209;-79
2023/03/22 13:17:42;;;;;;;21.43;14.60;;;;;;;;;;5134651;27;20222;-79
2023/03/22 13:20:26;;;;;;;16.03;13.93;;;;;;;;;;5121018;27;20287;-79
2023/03/22 13:23:31;;;;;;;8.50;7.70;;;;;;;;;;5111977;27;20190;-79
2023/03/22 13:26:02;;;;;;;7.00;6.30;;;;;;;;;;5108909;27;20206;-79
2023/03/22 13:28:35;;;;;;;8.67;7.77;;;;;;;;;;5133807;27;20677;-79
2023/03/22 13:31:03;;;;;;;15.53;7.90;;;;;;;;;;5134282;27;20210;-79
2023/03/22 13:33:31;;;;;;;10.83;7.30;;;;;;;;;;5134110;27;21068;-79
2023/03/22 13:35:59;;;;;;;7.60;6.23;;;;;;;;;;5134368;27;20195;-79
2023/03/22 13:38:29;;;;;;;34.63;25.13;;;;;;;;;;5133855;27;20281;-82
2023/03/22 13:41:03;;;;;;;12.33;11.07;;;;;;;;;;5134091;27;20697;-79
2023/03/22 13:43:32;;;;;;;11.53;10.33;;;;;;;;;;5134108;27;20195;-79
2023/03/22 13:46:38;;;;;;;17.13;13.33;;;;;;;;;;5134222;27;20203;-79
2023/03/22 13:49:27;;;;;;;14.23;11.93;;;;;;;;;;5121273;27;20198;-78
2023/03/22 13:51:56;;;;;;;13.57;10.47;;;;;;;;;;5131054;27;20291;-78
2023/03/22 13:54:27;;;;;;;14.87;11.77;;;;;;;;;;5134207;27;20281;-78
2023/03/22 13:56:59;;;;;;;8.93;8.03;;;;;;;;;;5133712;27;20203;-79
2023/03/22 13:59:31;;;;;;;11.30;8.60;;;;;;;;;;5133361;27;20222;-79
2023/03/22 14:02:03;;;;;;;14.40;9.40;;;;;;;;;;5134009;27;20211;-80
2023/03/22 14:04:33;;;;;;;10.90;8.53;;;;;;;;;;5134063;27;20201;-80
2023/03/22 14:07:06;;;;;;;11.53;8.80;;;;;;;;;;5134217;27;20237;-79
2023/03/22 14:09:35;;;;;;;14.67;9.50;;;;;;;;;;5119880;27;20202;-79
2023/03/22 14:12:08;;;;;;;10.37;7.90;;;;;;;;;;5133145;27;20234;-79
2023/03/22 14:14:40;;;;;;;15.33;13.73;;;;;;;;;;5105850;27;20706;-79
2023/03/22 14:17:16;;;;;;;13.00;10.90;;;;;;;;;;5133518;27;20252;-80
2023/03/22 14:19:43;;;;;;;12.73;8.37;;;;;;;;;;5134040;27;20202;-80
2023/03/22 14:22:14;;;;;;;8.67;7.23;;;;;;;;;;5132873;27;20260;-80
2023/03/22 14:24:41;;;;;;;10.57;8.20;;;;;;;;;;5133257;27;20639;-80
2023/03/22 14:27:09;;;;;;;8.70;6.40;;;;;;;;;;5133035;27;20191;-80
2023/03/22 14:29:43;;;;;;;7.73;6.90;;;;;;;;;;5133800;27;20202;-79
2023/03/22 14:32:16;;;;;;;8.63;7.13;;;;;;;;;;5133039;27;20705;-80
2023/03/22 14:34:44;;;;;;;15.33;9.03;;;;;;;;;;5133599;27;20263;-79
2023/03/22 14:37:13;;;;;;;11.13;8.33;;;;;;;;;;5132589;27;20259;-80